Historique des mesures à Cassis (13260), France
Quotidien Résumé Janvier 8, 2017 Unités:  US    Métrique   Métrique/US
« Précédent (Jour)
Suivant (Jour) »
Quotidien Hebdomadaire Mensuel Annuel Période au choix
  Maximum: Minimum: Moyenne:
Température: 32 °F 38.1 °F 42.1 °F
Point de rosée: 32 °F 23.7 °F 29.1 °F
Humidité: Humidity % 53 % 57 %
Vitesse du vent: WindSpeedKMH mph 0.0 mph 1.1 mph
Rafales: WindSpeedGustKMH mph - -
Vent:- - WSW
Pression: 0 in 30 in -
Précipitations: 0 in    
Historical Graphs
 
 
Mesures pour : Janvier 8, 2017
Heure Temperature Point de rosée Pression Vent Vitesse du vent Rafales Humidité Pluie (par heure) Conditions
32 °F 32 °F 0 in Calm     Humidity % 0 in SoftwareType W/m2
00:11 39.7 °F 26.1 °F 30.2 in Calm   2.9 mph 58 % 0 in open2300-1.11 W/m2
01:10 39 °F 25.9 °F 30.2 in Calm   3.2 mph 59 % 0 in open2300-1.11 W/m2
02:11 39.4 °F 27 °F 30.2 in Calm   3.5 mph 61 % 0 in open2300-1.11 W/m2
03:10 39 °F 26.6 °F 30.2 in Calm   5.0 mph 61 % 0 in open2300-1.11 W/m2
04:11 39 °F 25.9 °F 30.1 in Calm   5.8 mph 59 % 0 in open2300-1.11 W/m2
05:10 38.5 °F 25 °F 30.1 in NE 1.8 mph 2.1 mph 58 % 0 in open2300-1.11 W/m2
06:11 38.1 °F 25 °F 30.1 in Calm     59 % 0 in open2300-1.11 W/m2
07:10 39.6 °F 24.1 °F 30.1 in NNW 2.6 mph 2.6 mph 54 % 0 in open2300-1.11 W/m2
08:11 39.6 °F 23.7 °F 30.1 in Calm   2.1 mph 53 % 0 in open2300-1.11 W/m2
09:10 40.1 °F 24.6 °F 30.1 in Calm     54 % 0 in open2300-1.11 W/m2
10:11 41.7 °F 26.2 °F 30.1 in Calm   5.8 mph 54 % 0 in open2300-1.11 W/m2
11:10 43 °F 28.2 °F 30.1 in Calm   3.5 mph 56 % 0 in open2300-1.11 W/m2
12:11 44.8 °F 31.5 °F 30.1 in WNW 14.8 mph 14.8 mph 59 % 0 in open2300-1.11 W/m2
13:10 46.9 °F 33.3 °F 30 in Calm   7.2 mph 59 % 0 in open2300-1.11 W/m2
14:11 49.3 °F 34.7 °F 30 in NNW 8.2 mph 8.7 mph 57 % 0 in open2300-1.11 W/m2
16:11 48.7 °F 34.2 °F 30 in Calm   6.1 mph 57 % 0 in open2300-1.11 W/m2
17:10 47.1 °F 33.1 °F 30 in Calm   11.9 mph 58 % 0 in open2300-1.11 W/m2
18:11 44.8 °F 32.5 °F 30.1 in Calm   4.0 mph 62 % 0 in open2300-1.11 W/m2
19:10 44.1 °F 32.2 °F 30.1 in Calm     64 % 0 in open2300-1.11 W/m2
20:11 43.7 °F 32.4 °F 30.1 in Calm     64 % 0 in open2300-1.11 W/m2
21:10 43.7 °F 32.4 °F 30.1 in Calm     64 % 0 in open2300-1.11 W/m2
22:11 43.2 °F 32.2 °F 30.1 in Calm     65 % 0 in open2300-1.11 W/m2
23:10 43.5 °F 32.2 °F 30.1 in Calm   8.2 mph 64 % 0 in open2300-1.11 W/m2
Observations météo à CASSIS
WU-History script by Weather Underground - 1 mb